sensor_id;sensor_type;location;lat;lon;timestamp;P1;durP1;ratioP1;P2;durP2;ratioP2
22131;SDS011;11232;51.748;19.390;2023-05-10T00:02:14;8.83;;;4.30;;
22131;SDS011;11232;51.748;19.390;2023-05-10T00:04:40;7.33;;;4.57;;
22131;SDS011;11232;51.748;19.390;2023-05-10T00:07:06;6.97;;;4.17;;
22131;SDS011;11232;51.748;19.390;2023-05-10T00:09:32;7.13;;;4.17;;
22131;SDS011;11232;51.748;19.390;2023-05-10T00:11:58;9.10;;;4.03;;
22131;SDS011;11232;51.748;19.390;2023-05-10T00:14:24;7.10;;;4.37;;
22131;SDS011;11232;51.748;19.390;2023-05-10T00:16:50;11.47;;;4.60;;
22131;SDS011;11232;51.748;19.390;2023-05-10T00:19:16;8.03;;;4.13;;
22131;SDS011;11232;51.748;19.390;2023-05-10T00:21:42;9.57;;;4.60;;
22131;SDS011;11232;51.748;19.390;2023-05-10T00:24:08;10.30;;;5.03;;
22131;SDS011;11232;51.748;19.390;2023-05-10T00:26:34;7.30;;;4.50;;
22131;SDS011;11232;51.748;19.390;2023-05-10T00:29:00;7.83;;;4.43;;
22131;SDS011;11232;51.748;19.390;2023-05-10T00:31:26;5.77;;;3.90;;
22131;SDS011;11232;51.748;19.390;2023-05-10T00:33:52;9.83;;;4.63;;
22131;SDS011;11232;51.748;19.390;2023-05-10T00:36:18;7.80;;;4.27;;
22131;SDS011;11232;51.748;19.390;2023-05-10T00:38:45;10.20;;;4.43;;
22131;SDS011;11232;51.748;19.390;2023-05-10T00:41:11;6.27;;;3.87;;
22131;SDS011;11232;51.748;19.390;2023-05-10T00:43:37;7.37;;;3.90;;
22131;SDS011;11232;51.748;19.390;2023-05-10T00:46:04;5.03;;;4.00;;
22131;SDS011;11232;51.748;19.390;2023-05-10T00:48:30;11.07;;;4.43;;
22131;SDS011;11232;51.748;19.390;2023-05-10T00:50:57;11.10;;;4.30;;
22131;SDS011;11232;51.748;19.390;2023-05-10T00:53:23;8.67;;;4.80;;
22131;SDS011;11232;51.748;19.390;2023-05-10T00:55:50;11.07;;;4.30;;
22131;SDS011;11232;51.748;19.390;2023-05-10T00:58:16;5.87;;;4.03;;
22131;SDS011;11232;51.748;19.390;2023-05-10T01:00:42;7.37;;;3.77;;
22131;SDS011;11232;51.748;19.390;2023-05-10T01:03:09;6.33;;;4.10;;
22131;SDS011;11232;51.748;19.390;2023-05-10T01:05:36;6.43;;;4.10;;
22131;SDS011;11232;51.748;19.390;2023-05-10T01:08:02;10.73;;;4.47;;
22131;SDS011;11232;51.748;19.390;2023-05-10T01:10:28;8.50;;;3.63;;
22131;SDS011;11232;51.748;19.390;2023-05-10T01:12:54;6.37;;;4.30;;
22131;SDS011;11232;51.748;19.390;2023-05-10T01:15:20;6.53;;;4.23;;
22131;SDS011;11232;51.748;19.390;2023-05-10T01:17:47;7.93;;;4.13;;
22131;SDS011;11232;51.748;19.390;2023-05-10T01:20:13;11.37;;;4.73;;
22131;SDS011;11232;51.748;19.390;2023-05-10T01:28:02;9.20;;;4.23;;
22131;SDS011;11232;51.748;19.390;2023-05-10T01:30:40;8.30;;;4.33;;
22131;SDS011;11232;51.748;19.390;2023-05-10T01:38:38;8.93;;;4.50;;
22131;SDS011;11232;51.748;19.390;2023-05-10T01:43:52;9.70;;;4.00;;
22131;SDS011;11232;51.748;19.390;2023-05-10T01:46:24;7.23;;;3.93;;
22131;SDS011;11232;51.748;19.390;2023-05-10T01:48:52;6.47;;;3.93;;
22131;SDS011;11232;51.748;19.390;2023-05-10T01:51:21;8.30;;;3.67;;
22131;SDS011;11232;51.748;19.390;2023-05-10T01:53:48;7.37;;;3.90;;
22131;SDS011;11232;51.748;19.390;2023-05-10T01:56:16;8.60;;;4.17;;
22131;SDS011;11232;51.748;19.390;2023-05-10T01:58:43;9.20;;;4.40;;
22131;SDS011;11232;51.748;19.390;2023-05-10T02:01:10;6.37;;;3.77;;
22131;SDS011;11232;51.748;19.390;2023-05-10T02:03:37;9.97;;;3.50;;
22131;SDS011;11232;51.748;19.390;2023-05-10T02:06:04;6.47;;;3.77;;
22131;SDS011;11232;51.748;19.390;2023-05-10T02:08:31;6.90;;;3.50;;
22131;SDS011;11232;51.748;19.390;2023-05-10T02:10:58;9.13;;;3.67;;
22131;SDS011;11232;51.748;19.390;2023-05-10T02:13:25;9.93;;;4.10;;
22131;SDS011;11232;51.748;19.390;2023-05-10T02:15:52;9.57;;;4.13;;
22131;SDS011;11232;51.748;19.390;2023-05-10T02:18:18;9.20;;;3.80;;
22131;SDS011;11232;51.748;19.390;2023-05-10T02:20:45;7.30;;;4.13;;
22131;SDS011;11232;51.748;19.390;2023-05-10T02:23:11;9.83;;;4.10;;
22131;SDS011;11232;51.748;19.390;2023-05-10T02:25:38;11.40;;;4.53;;
22131;SDS011;11232;51.748;19.390;2023-05-10T02:28:04;9.47;;;4.03;;
22131;SDS011;11232;51.748;19.390;2023-05-10T02:30:31;7.53;;;3.63;;
22131;SDS011;11232;51.748;19.390;2023-05-10T02:32:58;8.10;;;4.23;;
22131;SDS011;11232;51.748;19.390;2023-05-10T02:35:25;11.27;;;4.67;;
22131;SDS011;11232;51.748;19.390;2023-05-10T02:37:51;6.80;;;3.97;;
22131;SDS011;11232;51.748;19.390;2023-05-10T02:40:18;8.20;;;4.43;;
22131;SDS011;11232;51.748;19.390;2023-05-10T02:42:45;8.77;;;4.13;;
22131;SDS011;11232;51.748;19.390;2023-05-10T02:45:15;7.03;;;3.93;;
22131;SDS011;11232;51.748;19.390;2023-05-10T02:47:42;10.60;;;4.57;;
22131;SDS011;11232;51.748;19.390;2023-05-10T02:50:08;8.30;;;4.60;;
22131;SDS011;11232;51.748;19.390;2023-05-10T02:52:46;9.63;;;3.50;;
22131;SDS011;11232;51.748;19.390;2023-05-10T02:55:14;7.47;;;4.17;;
22131;SDS011;11232;51.748;19.390;2023-05-10T02:57:46;10.17;;;4.10;;
22131;SDS011;11232;51.748;19.390;2023-05-10T03:00:14;5.90;;;3.37;;
22131;SDS011;11232;51.748;19.390;2023-05-10T03:02:40;8.17;;;4.07;;
22131;SDS011;11232;51.748;19.390;2023-05-10T03:05:06;7.50;;;3.90;;
22131;SDS011;11232;51.748;19.390;2023-05-10T03:07:33;7.33;;;4.00;;
22131;SDS011;11232;51.748;19.390;2023-05-10T03:09:59;8.37;;;3.67;;
22131;SDS011;11232;51.748;19.390;2023-05-10T03:12:36;9.20;;;4.00;;
22131;SDS011;11232;51.748;19.390;2023-05-10T03:15:04;6.90;;;4.00;;
22131;SDS011;11232;51.748;19.390;2023-05-10T03:17:41;13.13;;;4.33;;
22131;SDS011;11232;51.748;19.390;2023-05-10T03:20:12;5.87;;;3.63;;
22131;SDS011;11232;51.748;19.390;2023-05-10T03:22:44;10.43;;;4.23;;
22131;SDS011;11232;51.748;19.390;2023-05-10T03:25:11;6.17;;;3.57;;
22131;SDS011;11232;51.748;19.390;2023-05-10T03:27:39;5.53;;;3.67;;
22131;SDS011;11232;51.748;19.390;2023-05-10T03:30:06;13.73;;;5.50;;
22131;SDS011;11232;51.748;19.390;2023-05-10T03:32:33;6.97;;;3.77;;
22131;SDS011;11232;51.748;19.390;2023-05-10T03:34:59;9.27;;;4.03;;
22131;SDS011;11232;51.748;19.390;2023-05-10T03:37:27;8.07;;;4.17;;
22131;SDS011;11232;51.748;19.390;2023-05-10T03:39:53;7.57;;;4.20;;
22131;SDS011;11232;51.748;19.390;2023-05-10T03:42:19;10.50;;;4.13;;
22131;SDS011;11232;51.748;19.390;2023-05-10T03:44:45;7.67;;;4.03;;
22131;SDS011;11232;51.748;19.390;2023-05-10T03:47:11;6.00;;;3.73;;
22131;SDS011;11232;51.748;19.390;2023-05-10T03:49:37;7.10;;;4.30;;
22131;SDS011;11232;51.748;19.390;2023-05-10T03:52:03;9.70;;;3.73;;
22131;SDS011;11232;51.748;19.390;2023-05-10T03:54:30;8.53;;;3.80;;
22131;SDS011;11232;51.748;19.390;2023-05-10T03:56:56;6.90;;;3.73;;
22131;SDS011;11232;51.748;19.390;2023-05-10T03:59:22;11.87;;;4.13;;
22131;SDS011;11232;51.748;19.390;2023-05-10T04:01:48;9.23;;;4.20;;
22131;SDS011;11232;51.748;19.390;2023-05-10T04:04:16;7.27;;;3.90;;
22131;SDS011;11232;51.748;19.390;2023-05-10T04:06:45;5.73;;;3.77;;
22131;SDS011;11232;51.748;19.390;2023-05-10T04:09:11;10.80;;;4.07;;
22131;SDS011;11232;51.748;19.390;2023-05-10T04:11:37;7.93;;;4.00;;
22131;SDS011;11232;51.748;19.390;2023-05-10T04:14:03;4.97;;;3.40;;
22131;SDS011;11232;51.748;19.390;2023-05-10T04:16:29;7.20;;;3.70;;
22131;SDS011;11232;51.748;19.390;2023-05-10T04:18:55;8.90;;;4.00;;
22131;SDS011;11232;51.748;19.390;2023-05-10T04:21:22;9.40;;;3.97;;
22131;SDS011;11232;51.748;19.390;2023-05-10T04:23:48;10.43;;;3.97;;
22131;SDS011;11232;51.748;19.390;2023-05-10T04:26:14;10.10;;;3.80;;
22131;SDS011;11232;51.748;19.390;2023-05-10T04:28:40;7.77;;;4.13;;
22131;SDS011;11232;51.748;19.390;2023-05-10T04:31:07;7.43;;;3.40;;
22131;SDS011;11232;51.748;19.390;2023-05-10T04:33:33;7.40;;;3.60;;
22131;SDS011;11232;51.748;19.390;2023-05-10T04:35:59;8.27;;;4.37;;
22131;SDS011;11232;51.748;19.390;2023-05-10T04:38:25;5.37;;;3.57;;
22131;SDS011;11232;51.748;19.390;2023-05-10T04:40:52;7.23;;;3.90;;
22131;SDS011;11232;51.748;19.390;2023-05-10T04:43:18;7.10;;;3.97;;
22131;SDS011;11232;51.748;19.390;2023-05-10T04:45:44;7.77;;;3.77;;
22131;SDS011;11232;51.748;19.390;2023-05-10T04:48:10;8.10;;;3.80;;
22131;SDS011;11232;51.748;19.390;2023-05-10T04:50:36;11.73;;;4.17;;
22131;SDS011;11232;51.748;19.390;2023-05-10T04:53:02;6.03;;;3.20;;
22131;SDS011;11232;51.748;19.390;2023-05-10T04:55:28;7.63;;;3.87;;
22131;SDS011;11232;51.748;19.390;2023-05-10T04:57:54;12.80;;;4.00;;
22131;SDS011;11232;51.748;19.390;2023-05-10T05:00:22;5.53;;;3.53;;
22131;SDS011;11232;51.748;19.390;2023-05-10T05:02:48;7.13;;;3.93;;
22131;SDS011;11232;51.748;19.390;2023-05-10T05:05:14;8.03;;;3.43;;
22131;SDS011;11232;51.748;19.390;2023-05-10T05:07:40;5.90;;;3.50;;
22131;SDS011;11232;51.748;19.390;2023-05-10T05:10:07;8.27;;;3.47;;
22131;SDS011;11232;51.748;19.390;2023-05-10T05:12:33;8.80;;;4.03;;
22131;SDS011;11232;51.748;19.390;2023-05-10T05:14:59;6.47;;;3.50;;
22131;SDS011;11232;51.748;19.390;2023-05-10T05:17:25;8.27;;;3.40;;
22131;SDS011;11232;51.748;19.390;2023-05-10T05:19:52;8.83;;;3.87;;
22131;SDS011;11232;51.748;19.390;2023-05-10T05:22:18;5.10;;;3.50;;
22131;SDS011;11232;51.748;19.390;2023-05-10T05:25:02;7.97;;;4.10;;
22131;SDS011;11232;51.748;19.390;2023-05-10T05:27:28;8.27;;;3.33;;
22131;SDS011;11232;51.748;19.390;2023-05-10T05:29:57;8.53;;;4.47;;
22131;SDS011;11232;51.748;19.390;2023-05-10T05:32:24;9.13;;;3.70;;
22131;SDS011;11232;51.748;19.390;2023-05-10T05:34:50;5.47;;;3.23;;
22131;SDS011;11232;51.748;19.390;2023-05-10T05:37:19;5.67;;;3.40;;
22131;SDS011;11232;51.748;19.390;2023-05-10T05:39:46;7.27;;;3.97;;
22131;SDS011;11232;51.748;19.390;2023-05-10T05:42:12;6.77;;;3.67;;
22131;SDS011;11232;51.748;19.390;2023-05-10T05:44:39;8.20;;;3.70;;
22131;SDS011;11232;51.748;19.390;2023-05-10T05:47:05;5.90;;;3.60;;
22131;SDS011;11232;51.748;19.390;2023-05-10T05:49:32;7.77;;;3.83;;
22131;SDS011;11232;51.748;19.390;2023-05-10T05:51:58;7.70;;;3.50;;
22131;SDS011;11232;51.748;19.390;2023-05-10T05:54:25;5.47;;;3.37;;
22131;SDS011;11232;51.748;19.390;2023-05-10T05:56:53;5.73;;;3.60;;
22131;SDS011;11232;51.748;19.390;2023-05-10T05:59:20;7.07;;;3.67;;
22131;SDS011;11232;51.748;19.390;2023-05-10T06:01:46;7.40;;;3.90;;
22131;SDS011;11232;51.748;19.390;2023-05-10T06:04:12;11.07;;;3.93;;
22131;SDS011;11232;51.748;19.390;2023-05-10T06:06:38;7.53;;;3.50;;
22131;SDS011;11232;51.748;19.390;2023-05-10T06:09:04;6.73;;;3.70;;
22131;SDS011;11232;51.748;19.390;2023-05-10T06:11:30;6.23;;;3.60;;
22131;SDS011;11232;51.748;19.390;2023-05-10T06:13:59;7.30;;;3.50;;
22131;SDS011;11232;51.748;19.390;2023-05-10T06:16:25;6.43;;;3.63;;
22131;SDS011;11232;51.748;19.390;2023-05-10T06:18:51;7.43;;;4.10;;
22131;SDS011;11232;51.748;19.390;2023-05-10T06:21:17;8.50;;;3.73;;
22131;SDS011;11232;51.748;19.390;2023-05-10T06:23:43;8.77;;;4.30;;
22131;SDS011;11232;51.748;19.390;2023-05-10T06:26:09;6.20;;;3.83;;
22131;SDS011;11232;51.748;19.390;2023-05-10T06:28:35;5.30;;;3.73;;
22131;SDS011;11232;51.748;19.390;2023-05-10T06:31:04;7.17;;;4.07;;
22131;SDS011;11232;51.748;19.390;2023-05-10T06:33:30;5.93;;;3.40;;
22131;SDS011;11232;51.748;19.390;2023-05-10T06:35:56;7.57;;;3.90;;
22131;SDS011;11232;51.748;19.390;2023-05-10T06:38:22;10.27;;;3.80;;
22131;SDS011;11232;51.748;19.390;2023-05-10T06:40:49;7.30;;;3.90;;
22131;SDS011;11232;51.748;19.390;2023-05-10T06:43:15;6.50;;;3.83;;
22131;SDS011;11232;51.748;19.390;2023-05-10T06:45:44;8.03;;;3.80;;
22131;SDS011;11232;51.748;19.390;2023-05-10T06:48:11;10.90;;;4.27;;
22131;SDS011;11232;51.748;19.390;2023-05-10T06:50:37;8.30;;;3.80;;
22131;SDS011;11232;51.748;19.390;2023-05-10T06:53:03;8.10;;;3.47;;
22131;SDS011;11232;51.748;19.390;2023-05-10T06:55:29;6.53;;;3.60;;
22131;SDS011;11232;51.748;19.390;2023-05-10T06:57:55;6.77;;;3.67;;
22131;SDS011;11232;51.748;19.390;2023-05-10T07:00:21;7.10;;;3.83;;
22131;SDS011;11232;51.748;19.390;2023-05-10T07:02:47;6.35;;;3.80;;
22131;SDS011;11232;51.748;19.390;2023-05-10T07:05:13;6.77;;;3.87;;
22131;SDS011;11232;51.748;19.390;2023-05-10T07:07:40;10.10;;;3.95;;
22131;SDS011;11232;51.748;19.390;2023-05-10T07:10:06;5.87;;;3.80;;
22131;SDS011;11232;51.748;19.390;2023-05-10T07:12:32;8.97;;;3.70;;
22131;SDS011;11232;51.748;19.390;2023-05-10T07:14:58;8.50;;;4.40;;
22131;SDS011;11232;51.748;19.390;2023-05-10T07:17:24;11.63;;;4.15;;
22131;SDS011;11232;51.748;19.390;2023-05-10T07:19:50;9.02;;;4.22;;
22131;SDS011;11232;51.748;19.390;2023-05-10T07:22:17;7.20;;;4.10;;
22131;SDS011;11232;51.748;19.390;2023-05-10T07:24:43;6.90;;;4.00;;
22131;SDS011;11232;51.748;19.390;2023-05-10T07:27:09;9.20;;;4.20;;
22131;SDS011;11232;51.748;19.390;2023-05-10T07:29:35;6.45;;;3.80;;
22131;SDS011;11232;51.748;19.390;2023-05-10T07:32:02;6.72;;;3.90;;
22131;SDS011;11232;51.748;19.390;2023-05-10T07:34:28;7.50;;;4.20;;
22131;SDS011;11232;51.748;19.390;2023-05-10T07:36:55;6.35;;;3.90;;
22131;SDS011;11232;51.748;19.390;2023-05-10T07:39:21;11.32;;;3.90;;
22131;SDS011;11232;51.748;19.390;2023-05-10T07:41:47;6.32;;;3.67;;
22131;SDS011;11232;51.748;19.390;2023-05-10T07:44:13;8.32;;;3.80;;
22131;SDS011;11232;51.748;19.390;2023-05-10T07:46:39;6.43;;;3.20;;
22131;SDS011;11232;51.748;19.390;2023-05-10T07:49:05;5.18;;;3.35;;
22131;SDS011;11232;51.748;19.390;2023-05-10T07:51:31;4.65;;;3.40;;
22131;SDS011;11232;51.748;19.390;2023-05-10T07:53:57;6.25;;;3.33;;
22131;SDS011;11232;51.748;19.390;2023-05-10T07:56:24;5.03;;;3.10;;
22131;SDS011;11232;51.748;19.390;2023-05-10T07:58:52;3.83;;;3.10;;
22131;SDS011;11232;51.748;19.390;2023-05-10T08:01:18;13.80;;;6.85;;
22131;SDS011;11232;51.748;19.390;2023-05-10T08:03:44;3.75;;;3.05;;
22131;SDS011;11232;51.748;19.390;2023-05-10T08:06:10;5.80;;;3.25;;
22131;SDS011;11232;51.748;19.390;2023-05-10T08:08:36;7.20;;;2.83;;
22131;SDS011;11232;51.748;19.390;2023-05-10T08:11:02;11.55;;;4.72;;
22131;SDS011;11232;51.748;19.390;2023-05-10T08:13:28;9.63;;;6.28;;
22131;SDS011;11232;51.748;19.390;2023-05-10T08:15:54;4.75;;;2.60;;
22131;SDS011;11232;51.748;19.390;2023-05-10T08:18:20;8.30;;;2.92;;
22131;SDS011;11232;51.748;19.390;2023-05-10T08:20:46;3.70;;;2.85;;
22131;SDS011;11232;51.748;19.390;2023-05-10T08:23:12;6.80;;;3.25;;
22131;SDS011;11232;51.748;19.390;2023-05-10T08:25:38;7.15;;;2.90;;
22131;SDS011;11232;51.748;19.390;2023-05-10T08:28:04;4.43;;;2.53;;
22131;SDS011;11232;51.748;19.390;2023-05-10T08:30:30;4.53;;;3.05;;
22131;SDS011;11232;51.748;19.390;2023-05-10T08:32:56;3.00;;;2.70;;
22131;SDS011;11232;51.748;19.390;2023-05-10T08:35:22;6.00;;;3.33;;
22131;SDS011;11232;51.748;19.390;2023-05-10T08:37:49;7.50;;;2.92;;
22131;SDS011;11232;51.748;19.390;2023-05-10T08:40:15;6.97;;;2.72;;
22131;SDS011;11232;51.748;19.390;2023-05-10T08:42:43;4.50;;;2.80;;
22131;SDS011;11232;51.748;19.390;2023-05-10T08:45:10;4.75;;;3.00;;
22131;SDS011;11232;51.748;19.390;2023-05-10T08:47:36;3.72;;;3.00;;
22131;SDS011;11232;51.748;19.390;2023-05-10T08:50:03;5.57;;;3.08;;
22131;SDS011;11232;51.748;19.390;2023-05-10T08:52:29;4.50;;;3.22;;
22131;SDS011;11232;51.748;19.390;2023-05-10T08:54:56;8.13;;;3.10;;
22131;SDS011;11232;51.748;19.390;2023-05-10T08:57:22;6.20;;;2.95;;
22131;SDS011;11232;51.748;19.390;2023-05-10T08:59:48;13.07;;;3.10;;
22131;SDS011;11232;51.748;19.390;2023-05-10T09:02:14;6.93;;;3.03;;
22131;SDS011;11232;51.748;19.390;2023-05-10T09:04:40;5.75;;;2.80;;
22131;SDS011;11232;51.748;19.390;2023-05-10T09:07:06;7.53;;;2.75;;
22131;SDS011;11232;51.748;19.390;2023-05-10T09:09:32;9.90;;;2.80;;
22131;SDS011;11232;51.748;19.390;2023-05-10T09:11:59;6.90;;;2.72;;
22131;SDS011;11232;51.748;19.390;2023-05-10T09:14:25;3.58;;;2.53;;
22131;SDS011;11232;51.748;19.390;2023-05-10T09:16:51;7.07;;;3.00;;
22131;SDS011;11232;51.748;19.390;2023-05-10T09:19:19;5.50;;;2.60;;
22131;SDS011;11232;51.748;19.390;2023-05-10T09:21:45;14.45;;;3.03;;
22131;SDS011;11232;51.748;19.390;2023-05-10T09:24:11;6.03;;;2.92;;
22131;SDS011;11232;51.748;19.390;2023-05-10T09:26:47;5.45;;;2.50;;
22131;SDS011;11232;51.748;19.390;2023-05-10T09:29:16;7.82;;;2.80;;
22131;SDS011;11232;51.748;19.390;2023-05-10T09:31:46;4.10;;;2.40;;
22131;SDS011;11232;51.748;19.390;2023-05-10T09:34:15;5.88;;;2.78;;
22131;SDS011;11232;51.748;19.390;2023-05-10T09:36:52;4.40;;;2.35;;
22131;SDS011;11232;51.748;19.390;2023-05-10T09:39:18;3.40;;;2.35;;
22131;SDS011;11232;51.748;19.390;2023-05-10T09:41:44;5.75;;;2.53;;
22131;SDS011;11232;51.748;19.390;2023-05-10T09:44:10;3.70;;;2.63;;
22131;SDS011;11232;51.748;19.390;2023-05-10T09:46:37;5.63;;;2.38;;
22131;SDS011;11232;51.748;19.390;2023-05-10T09:49:03;4.60;;;2.55;;
22131;SDS011;11232;51.748;19.390;2023-05-10T09:51:31;5.18;;;2.95;;
22131;SDS011;11232;51.748;19.390;2023-05-10T09:54:14;5.60;;;2.60;;
22131;SDS011;11232;51.748;19.390;2023-05-10T09:56:40;4.15;;;2.65;;
22131;SDS011;11232;51.748;19.390;2023-05-10T09:59:07;3.92;;;2.35;;
22131;SDS011;11232;51.748;19.390;2023-05-10T10:01:33;4.50;;;2.95;;
22131;SDS011;11232;51.748;19.390;2023-05-10T10:04:02;6.25;;;2.90;;
22131;SDS011;11232;51.748;19.390;2023-05-10T10:06:28;2.75;;;2.40;;
22131;SDS011;11232;51.748;19.390;2023-05-10T10:08:54;4.13;;;2.80;;
22131;SDS011;11232;51.748;19.390;2023-05-10T10:11:21;6.45;;;2.50;;
22131;SDS011;11232;51.748;19.390;2023-05-10T10:13:47;6.53;;;2.80;;
22131;SDS011;11232;51.748;19.390;2023-05-10T10:16:13;4.95;;;2.58;;
22131;SDS011;11232;51.748;19.390;2023-05-10T10:18:39;3.88;;;2.90;;
22131;SDS011;11232;51.748;19.390;2023-05-10T10:21:06;4.85;;;2.65;;
22131;SDS011;11232;51.748;19.390;2023-05-10T10:23:34;6.05;;;2.60;;
22131;SDS011;11232;51.748;19.390;2023-05-10T10:26:01;6.28;;;2.60;;
22131;SDS011;11232;51.748;19.390;2023-05-10T10:28:36;3.47;;;2.10;;
22131;SDS011;11232;51.748;19.390;2023-05-10T10:31:24;3.97;;;2.20;;
22131;SDS011;11232;51.748;19.390;2023-05-10T10:36:21;2.75;;;2.40;;
22131;SDS011;11232;51.748;19.390;2023-05-10T10:41:30;4.93;;;2.42;;
22131;SDS011;11232;51.748;19.390;2023-05-10T10:49:26;3.97;;;2.50;;
22131;SDS011;11232;51.748;19.390;2023-05-10T10:54:37;4.03;;;2.63;;
22131;SDS011;11232;51.748;19.390;2023-05-10T10:57:21;2.80;;;2.60;;
22131;SDS011;11232;51.748;19.390;2023-05-10T10:59:48;3.10;;;2.50;;
22131;SDS011;11232;51.748;19.390;2023-05-10T11:04:59;3.80;;;2.67;;
22131;SDS011;11232;51.748;19.390;2023-05-10T11:07:25;6.10;;;2.78;;
22131;SDS011;11232;51.748;19.390;2023-05-10T11:09:51;6.47;;;2.75;;
22131;SDS011;11232;51.748;19.390;2023-05-10T11:12:17;3.25;;;2.45;;
22131;SDS011;11232;51.748;19.390;2023-05-10T11:14:48;4.82;;;2.20;;
22131;SDS011;11232;51.748;19.390;2023-05-10T11:17:24;5.60;;;2.88;;
22131;SDS011;11232;51.748;19.390;2023-05-10T11:22:52;3.88;;;2.38;;
22131;SDS011;11232;51.748;19.390;2023-05-10T11:25:19;4.82;;;2.17;;
22131;SDS011;11232;51.748;19.390;2023-05-10T11:27:46;6.93;;;2.70;;
22131;SDS011;11232;51.748;19.390;2023-05-10T11:30:13;3.25;;;2.53;;
22131;SDS011;11232;51.748;19.390;2023-05-10T11:32:40;5.28;;;2.58;;
22131;SDS011;11232;51.748;19.390;2023-05-10T11:35:06;7.25;;;3.15;;
22131;SDS011;11232;51.748;19.390;2023-05-10T11:37:33;3.63;;;2.35;;
22131;SDS011;11232;51.748;19.390;2023-05-10T11:39:59;5.82;;;2.60;;
22131;SDS011;11232;51.748;19.390;2023-05-10T11:42:25;4.28;;;2.55;;
22131;SDS011;11232;51.748;19.390;2023-05-10T11:44:51;7.45;;;2.80;;
22131;SDS011;11232;51.748;19.390;2023-05-10T11:47:17;4.97;;;2.70;;
22131;SDS011;11232;51.748;19.390;2023-05-10T11:49:43;7.32;;;2.80;;
22131;SDS011;11232;51.748;19.390;2023-05-10T11:52:09;4.47;;;2.30;;
22131;SDS011;11232;51.748;19.390;2023-05-10T11:54:36;5.82;;;2.30;;
22131;SDS011;11232;51.748;19.390;2023-05-10T11:57:02;6.28;;;2.65;;
22131;SDS011;11232;51.748;19.390;2023-05-10T11:59:29;5.25;;;2.45;;
22131;SDS011;11232;51.748;19.390;2023-05-10T12:01:55;6.53;;;2.50;;
22131;SDS011;11232;51.748;19.390;2023-05-10T12:04:21;9.30;;;2.65;;
22131;SDS011;11232;51.748;19.390;2023-05-10T12:06:47;5.40;;;2.50;;
22131;SDS011;11232;51.748;19.390;2023-05-10T12:09:14;9.48;;;2.53;;
22131;SDS011;11232;51.748;19.390;2023-05-10T12:11:40;5.70;;;2.70;;
22131;SDS011;11232;51.748;19.390;2023-05-10T12:14:08;7.65;;;2.72;;
22131;SDS011;11232;51.748;19.390;2023-05-10T12:16:35;5.22;;;2.63;;
22131;SDS011;11232;51.748;19.390;2023-05-10T12:19:01;6.32;;;2.60;;
22131;SDS011;11232;51.748;19.390;2023-05-10T12:21:27;7.78;;;2.67;;
22131;SDS011;11232;51.748;19.390;2023-05-10T12:23:58;4.53;;;2.33;;
22131;SDS011;11232;51.748;19.390;2023-05-10T12:26:25;4.43;;;2.30;;
22131;SDS011;11232;51.748;19.390;2023-05-10T12:28:52;7.85;;;2.53;;
22131;SDS011;11232;51.748;19.390;2023-05-10T12:31:18;4.60;;;2.72;;
22131;SDS011;11232;51.748;19.390;2023-05-10T12:33:44;4.10;;;2.20;;
22131;SDS011;11232;51.748;19.390;2023-05-10T12:36:12;4.38;;;2.45;;
22131;SDS011;11232;51.748;19.390;2023-05-10T12:38:38;4.57;;;2.28;;
22131;SDS011;11232;51.748;19.390;2023-05-10T12:41:07;7.60;;;2.55;;
22131;SDS011;11232;51.748;19.390;2023-05-10T12:43:34;4.63;;;2.50;;
22131;SDS011;11232;51.748;19.390;2023-05-10T12:46:10;5.13;;;2.70;;
22131;SDS011;11232;51.748;19.390;2023-05-10T12:48:37;6.57;;;2.50;;
22131;SDS011;11232;51.748;19.390;2023-05-10T12:51:04;3.13;;;2.40;;
22131;SDS011;11232;51.748;19.390;2023-05-10T12:53:30;3.72;;;2.58;;
22131;SDS011;11232;51.748;19.390;2023-05-10T12:55:56;3.97;;;2.60;;
22131;SDS011;11232;51.748;19.390;2023-05-10T12:58:23;5.95;;;2.65;;
22131;SDS011;11232;51.748;19.390;2023-05-10T13:00:49;3.38;;;2.75;;
22131;SDS011;11232;51.748;19.390;2023-05-10T13:03:16;3.70;;;2.63;;
22131;SDS011;11232;51.748;19.390;2023-05-10T13:05:42;4.93;;;2.78;;
22131;SDS011;11232;51.748;19.390;2023-05-10T13:08:08;6.45;;;2.42;;
22131;SDS011;11232;51.748;19.390;2023-05-10T13:10:34;4.10;;;2.63;;
22131;SDS011;11232;51.748;19.390;2023-05-10T13:13:00;4.75;;;2.50;;
22131;SDS011;11232;51.748;19.390;2023-05-10T13:15:27;2.95;;;2.63;;
22131;SDS011;11232;51.748;19.390;2023-05-10T13:17:53;4.10;;;2.72;;
22131;SDS011;11232;51.748;19.390;2023-05-10T13:20:20;4.80;;;2.45;;
22131;SDS011;11232;51.748;19.390;2023-05-10T13:22:46;2.85;;;2.45;;
22131;SDS011;11232;51.748;19.390;2023-05-10T13:25:12;7.53;;;2.72;;
22131;SDS011;11232;51.748;19.390;2023-05-10T13:27:39;4.28;;;2.72;;
22131;SDS011;11232;51.748;19.390;2023-05-10T13:30:05;5.47;;;2.75;;
22131;SDS011;11232;51.748;19.390;2023-05-10T13:32:31;3.40;;;2.63;;
22131;SDS011;11232;51.748;19.390;2023-05-10T13:34:58;4.25;;;2.40;;
22131;SDS011;11232;51.748;19.390;2023-05-10T13:37:24;5.40;;;2.78;;
22131;SDS011;11232;51.748;19.390;2023-05-10T13:39:50;5.40;;;3.30;;
22131;SDS011;11232;51.748;19.390;2023-05-10T13:42:16;3.95;;;2.85;;
22131;SDS011;11232;51.748;19.390;2023-05-10T13:44:42;5.70;;;2.72;;
22131;SDS011;11232;51.748;19.390;2023-05-10T13:47:08;8.18;;;2.72;;
22131;SDS011;11232;51.748;19.390;2023-05-10T13:49:35;5.38;;;2.97;;
22131;SDS011;11232;51.748;19.390;2023-05-10T13:52:01;6.65;;;2.78;;
22131;SDS011;11232;51.748;19.390;2023-05-10T13:54:32;7.03;;;2.63;;
22131;SDS011;11232;51.748;19.390;2023-05-10T14:00:02;6.10;;;2.60;;
22131;SDS011;11232;51.748;19.390;2023-05-10T14:02:28;4.85;;;2.83;;
22131;SDS011;11232;51.748;19.390;2023-05-10T14:04:54;5.00;;;2.85;;
22131;SDS011;11232;51.748;19.390;2023-05-10T14:07:20;8.93;;;2.78;;
22131;SDS011;11232;51.748;19.390;2023-05-10T14:09:46;6.03;;;3.15;;
22131;SDS011;11232;51.748;19.390;2023-05-10T14:12:12;6.75;;;2.80;;
22131;SDS011;11232;51.748;19.390;2023-05-10T14:14:39;3.60;;;2.65;;
22131;SDS011;11232;51.748;19.390;2023-05-10T14:17:05;8.48;;;2.70;;
22131;SDS011;11232;51.748;19.390;2023-05-10T14:19:31;3.03;;;2.58;;
22131;SDS011;11232;51.748;19.390;2023-05-10T14:21:58;8.98;;;3.28;;
22131;SDS011;11232;51.748;19.390;2023-05-10T14:24:24;5.22;;;2.50;;
22131;SDS011;11232;51.748;19.390;2023-05-10T14:26:51;5.25;;;2.55;;
22131;SDS011;11232;51.748;19.390;2023-05-10T14:29:19;5.18;;;2.67;;
22131;SDS011;11232;51.748;19.390;2023-05-10T14:31:45;4.70;;;2.65;;
22131;SDS011;11232;51.748;19.390;2023-05-10T14:34:11;4.57;;;2.92;;
22131;SDS011;11232;51.748;19.390;2023-05-10T14:36:37;6.38;;;2.63;;
22131;SDS011;11232;51.748;19.390;2023-05-10T14:39:03;10.10;;;2.70;;
22131;SDS011;11232;51.748;19.390;2023-05-10T14:41:29;7.13;;;2.60;;
22131;SDS011;11232;51.748;19.390;2023-05-10T14:43:55;4.57;;;2.90;;
22131;SDS011;11232;51.748;19.390;2023-05-10T14:46:22;6.10;;;2.63;;
22131;SDS011;11232;51.748;19.390;2023-05-10T14:48:48;7.10;;;2.42;;
22131;SDS011;11232;51.748;19.390;2023-05-10T14:51:14;3.72;;;2.65;;
22131;SDS011;11232;51.748;19.390;2023-05-10T14:56:43;4.25;;;2.60;;
22131;SDS011;11232;51.748;19.390;2023-05-10T14:59:10;5.85;;;2.80;;
22131;SDS011;11232;51.748;19.390;2023-05-10T15:01:36;3.10;;;2.22;;
22131;SDS011;11232;51.748;19.390;2023-05-10T15:04:05;5.90;;;2.88;;
22131;SDS011;11232;51.748;19.390;2023-05-10T15:06:32;6.97;;;2.80;;
22131;SDS011;11232;51.748;19.390;2023-05-10T15:08:58;5.70;;;2.60;;
22131;SDS011;11232;51.748;19.390;2023-05-10T15:11:24;7.47;;;2.30;;